EDDG/FMO METAR and TAF weather

Enter ICAO airport designator
Station Type Date Time Source
EDDG METAR 2018/07/20 14:20 UTC NOAA

EDDG 201420Z 24006KT 160V280 CAVOK 29/10 Q1011 NOSIG


Station Type Date Time Source
EDDG Decoded METAR 2018/07/20 14:20 UTC NOAA

Muenster / Osnabrueck, Germany (EDDG) 52-08N 007-42E 53M
Jul 20, 2018 - 10:20 AM EDT / 2018.07.20 1420 UTC
Wind: from the WSW (240 degrees) at 7 MPH (6 KT) (direction variable):0
Visibility: greater than 7 mile(s):0
Temperature: 84 F (29 C)
Dew Point: 50 F (10 C)
Relative Humidity: 30%
Pressure (altimeter): 29.85 in. Hg (1011 hPa)
ob: EDDG 201420Z 24006KT 160V280 CAVOK 29/10 Q1011 NOSIG
cycle: 14

Station Type Date Time Source
EDDG TAF 2018/07/20 12:27 UTC NOAA

TAF EDDG 201100Z 2012/2112 18005KT CAVOK
BECMG 2012/2015 24005KT
TEMPO 2015/2112 VRB03KT
BECMG 2015/2018 33005KT


Example: see airport list